createdAt,value
2023-05-25T00:02:24.926Z,97153.05
2023-05-25T00:04:53.838Z,97152.70
2023-05-25T00:07:22.115Z,97149.81
2023-05-25T00:09:50.586Z,97149.90
2023-05-25T00:12:19.158Z,97146.91
2023-05-25T00:14:47.899Z,97145.52
2023-05-25T00:17:18.925Z,97145.02
2023-05-25T00:19:48.205Z,97138.59
2023-05-25T00:22:16.159Z,97146.43
2023-05-25T00:24:44.485Z,97141.95
2023-05-25T00:27:12.549Z,97147.94
2023-05-25T00:29:40.544Z,97152.90
2023-05-25T00:32:09.234Z,97154.52
2023-05-25T00:34:38.198Z,97158.11
2023-05-25T00:37:07.295Z,97154.52
2023-05-25T00:39:35.522Z,97155.97
2023-05-25T00:42:04.033Z,97157.92
2023-05-25T00:44:32.223Z,97157.80
2023-05-25T00:47:04.531Z,97159.46
2023-05-25T00:49:35.417Z,97157.42
2023-05-25T00:52:04.515Z,97161.50
2023-05-25T00:54:34.013Z,97163.66
2023-05-25T00:57:06.121Z,97163.85
2023-05-25T00:59:42.035Z,97167.10
2023-05-25T01:02:11.281Z,97171.80
2023-05-25T01:04:45.659Z,97176.21
2023-05-25T01:07:17.665Z,97174.67
2023-05-25T01:09:46.144Z,97172.48
2023-05-25T01:12:15.204Z,97176.21
2023-05-25T01:14:44.353Z,97174.05
2023-05-25T01:17:14.018Z,97180.45
2023-05-25T01:19:51.895Z,97182.11
2023-05-25T01:22:32.895Z,97188.10
2023-05-25T01:25:24.802Z,97190.64
2023-05-25T01:28:04.030Z,97189.73
2023-05-25T01:30:33.720Z,97183.79
2023-05-25T01:33:03.033Z,97179.52
2023-05-25T01:35:31.541Z,97182.38
2023-05-25T01:37:59.592Z,97182.81
2023-05-25T01:40:31.998Z,97181.36
2023-05-25T01:43:02.279Z,97184.71
2023-05-25T01:45:33.242Z,97183.48
2023-05-25T01:48:04.459Z,97180.21
2023-05-25T01:50:46.832Z,97180.89
2023-05-25T01:53:23.621Z,97180.02
2023-05-25T01:56:11.931Z,97178.59
2023-05-25T01:58:42.716Z,97182.81
2023-05-25T02:01:14.671Z,97186.30
2023-05-25T02:03:42.783Z,97190.42
2023-05-25T02:06:12.337Z,97193.32
2023-05-25T02:08:40.820Z,97187.31
2023-05-25T02:11:08.908Z,97189.48
2023-05-25T02:13:37.596Z,97189.17
2023-05-25T02:16:06.507Z,97192.83
2023-05-25T02:18:34.780Z,97195.98
2023-05-25T02:21:03.254Z,97192.27
2023-05-25T02:23:31.321Z,97192.52
2023-05-25T02:25:59.988Z,97192.59
2023-05-25T02:28:28.416Z,97191.48
2023-05-25T02:30:56.936Z,97197.88
2023-05-25T02:33:26.277Z,97200.42
2023-05-25T02:35:54.306Z,97200.85
2023-05-25T02:38:26.643Z,97208.38
2023-05-25T02:40:55.906Z,97205.98
2023-05-25T02:43:25.286Z,97207.60
2023-05-25T02:45:54.491Z,97208.86
2023-05-25T02:48:23.049Z,97209.65
2023-05-25T02:50:51.399Z,97212.70
2023-05-25T02:53:19.474Z,97210.84
2023-05-25T02:55:47.417Z,97206.94
2023-05-25T02:58:18.850Z,97205.02
2023-05-25T03:01:10.638Z,97209.60
2023-05-25T03:03:39.714Z,97211.05
2023-05-25T03:06:08.619Z,97215.27
2023-05-25T03:08:36.732Z,97220.23
2023-05-25T03:11:04.773Z,97216.73
2023-05-25T03:13:33.068Z,97217.84
2023-05-25T03:16:01.543Z,97214.92
2023-05-25T03:18:30.636Z,97218.97
2023-05-25T03:20:59.044Z,97217.98
2023-05-25T03:23:27.613Z,97221.33
2023-05-25T03:25:58.279Z,97217.84
2023-05-25T03:28:26.899Z,97220.06
2023-05-25T03:30:54.887Z,97224.27
2023-05-25T03:33:23.491Z,97223.74
2023-05-25T03:35:53.214Z,97226.39
2023-05-25T03:38:21.846Z,97226.72
2023-05-25T03:40:50.615Z,97229.33
2023-05-25T03:43:19.167Z,97227.08
2023-05-25T03:45:48.384Z,97233.00
2023-05-25T03:48:18.269Z,97234.36
2023-05-25T03:50:49.270Z,97232.60
2023-05-25T03:53:17.875Z,97231.73
2023-05-25T03:55:46.931Z,97231.67
2023-05-25T03:58:18.535Z,97229.39
2023-05-25T04:00:51.874Z,97234.48
2023-05-25T04:03:21.274Z,97232.50
2023-05-25T04:05:50.180Z,97233.05
2023-05-25T04:08:19.775Z,97234.89
2023-05-25T04:10:48.283Z,97238.55
2023-05-25T04:13:17.077Z,97241.61
2023-05-25T04:15:45.795Z,97245.41
2023-05-25T04:18:19.234Z,97249.35
2023-05-25T04:20:48.644Z,97248.54
2023-05-25T04:23:19.836Z,97245.86
2023-05-25T04:25:50.587Z,97249.96
2023-05-25T04:28:18.931Z,97248.40
2023-05-25T04:30:57.408Z,97249.88
2023-05-25T04:33:49.492Z,97247.33
2023-05-25T04:36:32.853Z,97249.30
2023-05-25T04:39:03.559Z,97251.41
2023-05-25T04:41:34.199Z,97254.48
2023-05-25T04:44:10.197Z,97250.77
2023-05-25T04:47:01.757Z,97250.93
2023-05-25T04:49:34.743Z,97251.30
2023-05-25T04:52:03.015Z,97252.50
2023-05-25T04:54:32.217Z,97252.86
2023-05-25T04:57:03.394Z,97247.90
2023-05-25T04:59:33.156Z,97244.07
2023-05-25T05:02:02.168Z,97242.86
2023-05-25T05:04:30.688Z,97246.70
2023-05-25T05:07:00.508Z,97246.36
2023-05-25T05:09:31.170Z,97247.92
2023-05-25T05:12:01.923Z,97251.38
2023-05-25T05:14:32.285Z,97256.09
2023-05-25T05:17:00.816Z,97256.62
2023-05-25T05:19:33.358Z,97260.33
2023-05-25T05:22:01.814Z,97264.27
2023-05-25T05:24:30.713Z,97268.17
2023-05-25T05:27:02.083Z,97266.29
2023-05-25T05:29:41.037Z,97267.36
2023-05-25T05:32:09.256Z,97266.59
2023-05-25T05:34:37.736Z,97271.01
2023-05-25T05:37:10.421Z,97270.37
2023-05-25T05:39:39.480Z,97270.62
2023-05-25T05:42:08.319Z,97269.99
2023-05-25T05:44:37.685Z,97274.02
2023-05-25T05:47:06.533Z,97273.91
2023-05-25T05:49:38.472Z,97274.34
2023-05-25T05:52:09.061Z,97274.36
2023-05-25T05:54:37.191Z,97272.33
2023-05-25T05:57:09.822Z,97271.64
2023-05-25T05:59:37.881Z,97271.92
2023-05-25T06:02:07.510Z,97275.27
2023-05-25T06:04:38.226Z,97275.11
2023-05-25T06:07:06.437Z,97279.33
2023-05-25T06:09:35.874Z,97279.05
2023-05-25T06:12:06.252Z,97278.41
2023-05-25T06:14:35.991Z,97280.98
2023-05-25T06:17:07.937Z,97282.69
2023-05-25T06:19:38.080Z,97285.03
2023-05-25T06:22:07.880Z,97285.65
2023-05-25T06:24:36.082Z,97287.11
2023-05-25T06:27:05.225Z,97290.36
2023-05-25T06:29:34.273Z,97289.59
2023-05-25T06:32:02.268Z,97283.92
2023-05-25T06:34:32.044Z,97281.80
2023-05-25T06:37:02.084Z,97285.19
2023-05-25T06:39:31.471Z,97285.26
2023-05-25T06:42:00.327Z,97287.71
2023-05-25T06:44:33.522Z,97289.65
2023-05-25T06:47:04.862Z,97291.50
2023-05-25T06:49:33.331Z,97289.09
2023-05-25T06:52:01.928Z,97290.64
2023-05-25T06:54:31.017Z,97293.45
2023-05-25T06:57:01.537Z,97294.05
2023-05-25T06:59:31.084Z,97300.02
2023-05-25T07:02:01.424Z,97295.77
2023-05-25T07:04:29.727Z,97296.83
2023-05-25T07:06:58.829Z,97294.90
2023-05-25T07:09:26.714Z,97295.48
2023-05-25T07:11:55.786Z,97296.63
2023-05-25T07:14:24.063Z,97299.64
2023-05-25T07:16:52.260Z,97300.23
2023-05-25T07:19:20.849Z,97302.64
2023-05-25T07:21:50.228Z,97303.96
2023-05-25T07:24:19.034Z,97307.13
2023-05-25T07:26:49.570Z,97307.95
2023-05-25T07:29:19.437Z,97309.46
2023-05-25T07:31:48.194Z,97312.05
2023-05-25T07:34:16.193Z,97311.45
2023-05-25T07:36:44.305Z,97314.87
2023-05-25T07:39:12.745Z,97314.04
2023-05-25T07:41:41.502Z,97312.67
2023-05-25T07:44:09.679Z,97309.05
2023-05-25T07:46:37.976Z,97309.45
2023-05-25T07:49:12.292Z,97306.91
2023-05-25T07:51:43.858Z,97303.42
2023-05-25T07:54:12.185Z,97303.95
2023-05-25T07:56:41.140Z,97300.63
2023-05-25T07:59:11.906Z,97295.08
2023-05-25T08:01:40.867Z,97297.01
2023-05-25T08:04:09.794Z,97297.96
2023-05-25T08:06:38.636Z,97300.27
2023-05-25T08:09:08.228Z,97299.34
2023-05-25T08:11:38.034Z,97298.81
2023-05-25T08:14:06.221Z,97295.52
2023-05-25T08:16:35.383Z,97293.36
2023-05-25T08:19:03.584Z,97293.45
2023-05-25T08:21:35.533Z,97287.73
2023-05-25T08:24:05.095Z,97287.91
2023-05-25T08:26:52.298Z,97283.52
2023-05-25T08:29:22.332Z,97284.80
2023-05-25T08:31:50.758Z,97279.19
2023-05-25T08:34:18.969Z,97282.01
2023-05-25T08:36:47.341Z,97281.88
2023-05-25T08:39:16.683Z,97283.27
2023-05-25T08:41:45.323Z,97284.17
2023-05-25T08:44:15.592Z,97283.42
2023-05-25T08:46:47.265Z,97282.71
2023-05-25T08:49:16.387Z,97282.85
2023-05-25T08:51:55.127Z,97283.25
2023-05-25T08:54:24.725Z,97283.77
2023-05-25T08:56:56.318Z,97283.74
2023-05-25T08:59:24.725Z,97285.84
2023-05-25T09:01:55.507Z,97284.05
2023-05-25T09:04:25.128Z,97279.56
2023-05-25T09:07:08.830Z,97281.59
2023-05-25T09:09:39.753Z,97284.39
2023-05-25T09:12:08.809Z,97283.25
2023-05-25T09:14:38.258Z,97281.98
2023-05-25T09:17:07.990Z,97281.91
2023-05-25T09:19:37.000Z,97278.98
2023-05-25T09:22:15.140Z,97279.90
2023-05-25T09:24:46.152Z,97279.21
2023-05-25T09:27:19.109Z,97280.66
2023-05-25T09:29:48.720Z,97280.66
2023-05-25T09:32:17.667Z,97279.48
2023-05-25T09:34:47.079Z,97280.20
2023-05-25T09:37:19.759Z,97277.08
2023-05-25T09:39:48.324Z,97274.09
2023-05-25T09:42:16.562Z,97279.84
2023-05-25T09:44:44.998Z,97280.54
2023-05-25T09:47:19.567Z,97279.89
2023-05-25T09:49:50.130Z,97279.33
2023-05-25T09:52:18.217Z,97276.65
2023-05-25T09:54:47.880Z,97272.98
2023-05-25T09:57:16.996Z,97278.05
2023-05-25T09:59:46.055Z,97277.78
2023-05-25T10:02:14.707Z,97277.86
2023-05-25T10:04:43.211Z,97273.57
2023-05-25T10:07:11.418Z,97274.31
2023-05-25T10:10:00.317Z,97276.86
2023-05-25T10:12:28.619Z,97274.27
2023-05-25T10:14:58.736Z,97277.12
2023-05-25T10:17:28.667Z,97277.38
2023-05-25T10:20:00.875Z,97274.67
2023-05-25T10:22:47.111Z,97276.26
2023-05-25T10:25:23.808Z,97269.63
2023-05-25T10:27:57.507Z,97269.77
2023-05-25T10:30:28.009Z,97267.58
2023-05-25T10:32:59.156Z,97265.29
2023-05-25T10:35:27.884Z,97261.70
2023-05-25T10:37:57.124Z,97259.50
2023-05-25T10:40:25.802Z,97256.04
2023-05-25T10:42:55.920Z,97258.88
2023-05-25T10:45:24.876Z,97254.58
2023-05-25T10:47:53.245Z,97251.45
2023-05-25T10:50:24.634Z,97245.30
2023-05-25T10:53:12.359Z,97242.66
2023-05-25T10:55:52.300Z,97235.23
2023-05-25T10:58:21.836Z,97228.39
2023-05-25T11:01:05.986Z,97227.30
2023-05-25T11:03:52.807Z,97225.33
2023-05-25T11:06:21.846Z,97222.52
2023-05-25T11:08:56.246Z,97218.45
2023-05-25T11:11:45.510Z,97209.27
2023-05-25T11:14:26.221Z,97214.98
2023-05-25T11:17:15.624Z,97209.77
2023-05-25T11:19:53.415Z,97212.11
2023-05-25T11:22:22.844Z,97207.88
2023-05-25T11:24:52.982Z,97207.21
2023-05-25T11:27:24.748Z,97203.62
2023-05-25T11:29:54.541Z,97201.20
2023-05-25T11:32:23.161Z,97199.39
2023-05-25T11:34:57.435Z,97196.08
2023-05-25T11:37:29.120Z,97193.56
2023-05-25T11:39:58.803Z,97193.46
2023-05-25T11:42:28.553Z,97193.60
2023-05-25T11:44:57.392Z,97186.67
2023-05-25T11:47:28.121Z,97186.26
2023-05-25T11:49:58.399Z,97186.61
2023-05-25T11:52:28.093Z,97178.39
2023-05-25T11:54:56.785Z,97175.73
2023-05-25T11:57:25.731Z,97174.86
2023-05-25T11:59:54.581Z,97173.48
2023-05-25T12:02:24.831Z,97169.42
2023-05-25T12:04:55.386Z,97167.66
2023-05-25T12:07:27.263Z,97164.03
2023-05-25T12:10:09.199Z,97159.59
2023-05-25T12:12:48.063Z,97154.88
2023-05-25T12:15:20.657Z,97148.56
2023-05-25T12:17:51.189Z,97147.73
2023-05-25T12:20:20.720Z,97147.64
2023-05-25T12:22:49.126Z,97143.33
2023-05-25T12:25:21.699Z,97144.92
2023-05-25T12:28:09.685Z,97144.72
2023-05-25T12:30:37.900Z,97142.71
2023-05-25T12:33:06.465Z,97146.44
2023-05-25T12:35:48.321Z,97145.08
2023-05-25T12:38:18.083Z,97141.16
2023-05-25T12:40:46.432Z,97141.45
2023-05-25T12:43:15.699Z,97139.08
2023-05-25T12:45:44.342Z,97136.98
2023-05-25T12:48:12.783Z,97135.87
2023-05-25T12:50:56.850Z,97135.14
2023-05-25T12:53:27.330Z,97134.64
2023-05-25T12:56:03.619Z,97134.15
2023-05-25T12:58:31.854Z,97126.05
2023-05-25T13:01:01.503Z,97125.91
2023-05-25T13:03:29.512Z,97122.02
2023-05-25T13:06:02.749Z,97118.30
2023-05-25T13:08:31.182Z,97117.39
2023-05-25T13:11:00.223Z,97114.91
2023-05-25T13:13:29.464Z,97114.28
2023-05-25T13:15:58.567Z,97110.84
2023-05-25T13:18:27.569Z,97113.38
2023-05-25T13:20:57.137Z,97110.13
2023-05-25T13:23:25.726Z,97111.36
2023-05-25T13:25:54.325Z,97113.23
2023-05-25T13:28:23.076Z,97110.45
2023-05-25T13:30:51.636Z,97112.95
2023-05-25T13:33:19.687Z,97107.59
2023-05-25T13:35:58.860Z,97103.65
2023-05-25T13:38:27.921Z,97098.80
2023-05-25T13:40:58.105Z,97101.15
2023-05-25T13:43:27.668Z,97105.20
2023-05-25T13:45:56.644Z,97109.19
2023-05-25T13:48:25.158Z,97106.23
2023-05-25T13:50:53.478Z,97112.58
2023-05-25T13:53:22.822Z,97118.62
2023-05-25T13:55:54.432Z,97113.81
2023-05-25T13:58:25.252Z,97114.08
2023-05-25T14:00:54.389Z,97111.92
2023-05-25T14:03:22.723Z,97115.71
2023-05-25T14:05:54.025Z,97115.26
2023-05-25T14:08:22.295Z,97108.61
2023-05-25T14:10:50.623Z,97107.95
2023-05-25T14:13:18.642Z,97106.56
2023-05-25T14:15:47.900Z,97111.63
2023-05-25T14:18:16.422Z,97104.39
2023-05-25T14:20:45.222Z,97104.47
2023-05-25T14:23:18.420Z,97103.23
2023-05-25T14:25:48.894Z,97100.06
2023-05-25T14:28:16.841Z,97098.08
2023-05-25T14:30:46.639Z,97093.39
2023-05-25T14:33:17.494Z,97089.76
2023-05-25T14:35:46.424Z,97089.34
2023-05-25T14:38:14.818Z,97087.61
2023-05-25T14:40:43.944Z,97090.66
2023-05-25T14:43:12.430Z,97086.23
2023-05-25T14:45:40.395Z,97084.95
2023-05-25T14:48:16.426Z,97083.40
2023-05-25T14:50:46.217Z,97079.60
2023-05-25T14:53:14.124Z,97079.31
2023-05-25T14:55:42.943Z,97080.31
2023-05-25T14:58:11.711Z,97076.43
2023-05-25T15:00:40.078Z,97080.65
2023-05-25T15:03:08.263Z,97076.43
2023-05-25T15:05:37.558Z,97076.83
2023-05-25T15:08:05.762Z,97072.29
2023-05-25T15:10:34.860Z,97065.16
2023-05-25T15:13:04.449Z,97068.50
2023-05-25T15:15:33.666Z,97069.41
2023-05-25T15:18:02.428Z,97065.92
2023-05-25T15:20:31.130Z,97062.04
2023-05-25T15:23:00.660Z,97060.27
2023-05-25T15:25:34.894Z,97057.38
2023-05-25T15:28:04.295Z,97054.63
2023-05-25T15:30:35.000Z,97051.43
2023-05-25T15:33:03.217Z,97048.94
2023-05-25T15:35:32.642Z,97046.86
2023-05-25T15:38:02.235Z,97042.41
2023-05-25T15:40:31.025Z,97041.11
2023-05-25T15:42:59.571Z,97041.48
2023-05-25T15:45:28.337Z,97037.40
2023-05-25T15:47:56.574Z,97035.14
2023-05-25T15:50:25.802Z,97033.99
2023-05-25T15:52:54.302Z,97040.58
2023-05-25T15:55:23.388Z,97048.32
2023-05-25T15:57:51.328Z,97054.72
2023-05-25T16:00:19.324Z,97056.84
2023-05-25T16:02:47.425Z,97059.84
2023-05-25T16:05:15.795Z,97069.73
2023-05-25T16:07:44.484Z,97073.02
2023-05-25T16:10:12.530Z,97077.59
2023-05-25T16:12:41.158Z,97078.30
2023-05-25T16:15:10.975Z,97078.98
2023-05-25T16:17:38.946Z,97074.73
2023-05-25T16:20:07.486Z,97076.69
2023-05-25T16:22:36.122Z,97081.86
2023-05-25T16:25:04.210Z,97089.52
2023-05-25T16:27:32.240Z,97092.36
2023-05-25T16:30:01.271Z,97100.87
2023-05-25T16:32:29.697Z,97108.05
2023-05-25T16:34:58.823Z,97113.61
2023-05-25T16:37:27.798Z,97115.21
2023-05-25T16:39:55.993Z,97117.04
2023-05-25T16:42:25.216Z,97122.40
2023-05-25T16:44:53.283Z,97124.39
2023-05-25T16:47:22.299Z,97121.70
2023-05-25T16:49:50.551Z,97124.23
2023-05-25T16:52:18.665Z,97128.69
2023-05-25T16:54:46.764Z,97131.23
2023-05-25T16:57:15.617Z,97136.45
2023-05-25T16:59:43.789Z,97136.15
2023-05-25T17:02:11.814Z,97138.95
2023-05-25T17:04:39.936Z,97146.89
2023-05-25T17:07:09.028Z,97153.33
2023-05-25T17:09:38.948Z,97156.47
2023-05-25T17:12:07.863Z,97162.65
2023-05-25T17:14:35.979Z,97154.02
2023-05-25T17:17:06.215Z,97153.05
2023-05-25T17:19:34.946Z,97148.63
2023-05-25T17:22:03.843Z,97154.82
2023-05-25T17:24:31.899Z,97160.78
2023-05-25T17:27:03.035Z,97163.20
2023-05-25T17:29:32.252Z,97167.65
2023-05-25T17:32:00.575Z,97173.46
2023-05-25T17:34:29.388Z,97173.48
2023-05-25T17:36:57.323Z,97178.56
2023-05-25T17:39:25.294Z,97179.88
2023-05-25T17:41:54.664Z,97183.58
2023-05-25T17:44:23.307Z,97187.23
2023-05-25T17:46:51.142Z,97191.39
2023-05-25T17:49:20.076Z,97194.38
2023-05-25T17:51:49.817Z,97197.22
2023-05-25T17:54:20.305Z,97203.88
2023-05-25T17:56:49.622Z,97207.41
2023-05-25T17:59:18.380Z,97210.31
2023-05-25T18:01:47.116Z,97208.52
2023-05-25T18:04:16.337Z,97210.39
2023-05-25T18:06:44.588Z,97207.79
2023-05-25T18:09:12.558Z,97210.09
2023-05-25T18:11:41.288Z,97214.66
2023-05-25T18:14:09.419Z,97223.13
2023-05-25T18:16:39.877Z,97227.38
2023-05-25T18:19:09.673Z,97229.16
2023-05-25T18:21:39.614Z,97231.80
2023-05-25T18:24:09.060Z,97230.97
2023-05-25T18:26:37.389Z,97227.17
2023-05-25T18:29:05.511Z,97227.34
2023-05-25T18:31:33.491Z,97229.30
2023-05-25T18:34:02.885Z,97232.35
2023-05-25T18:36:31.485Z,97232.63
2023-05-25T18:38:59.519Z,97237.52
2023-05-25T18:41:28.740Z,97240.04
2023-05-25T18:43:56.642Z,97247.30
2023-05-25T18:46:26.332Z,97252.05
2023-05-25T18:48:56.436Z,97257.28
2023-05-25T18:51:26.001Z,97262.79
2023-05-25T18:53:55.126Z,97259.83
2023-05-25T18:56:23.101Z,97261.21
2023-05-25T18:58:54.948Z,97261.41
2023-05-25T19:01:26.151Z,97266.11
2023-05-25T19:03:57.506Z,97266.20
2023-05-25T19:06:27.803Z,97266.96
2023-05-25T19:08:55.822Z,97270.65
2023-05-25T19:11:23.868Z,97270.14
2023-05-25T19:13:52.971Z,97272.48
2023-05-25T19:16:22.368Z,97271.27
2023-05-25T19:18:50.464Z,97265.48
2023-05-25T19:21:18.746Z,97271.01
2023-05-25T19:23:46.812Z,97271.05
2023-05-25T19:26:14.866Z,97274.39
2023-05-25T19:28:43.354Z,97273.16
2023-05-25T19:31:11.607Z,97274.11
2023-05-25T19:33:40.535Z,97271.13
2023-05-25T19:36:08.904Z,97267.66
2023-05-25T19:38:41.340Z,97263.83
2023-05-25T19:41:11.001Z,97266.72
2023-05-25T19:43:39.230Z,97264.69
2023-05-25T19:46:08.271Z,97265.81
2023-05-25T19:48:36.703Z,97262.79
2023-05-25T19:51:04.882Z,97256.55
2023-05-25T19:53:32.916Z,97254.89
2023-05-25T19:56:03.348Z,97253.45
2023-05-25T19:58:31.652Z,97253.16
2023-05-25T20:00:59.565Z,97252.18
2023-05-25T20:03:27.697Z,97249.96
2023-05-25T20:05:58.064Z,97255.18
2023-05-25T20:08:27.385Z,97257.63
2023-05-25T20:10:55.925Z,97261.14
2023-05-25T20:13:24.107Z,97263.52
2023-05-25T20:15:52.861Z,97265.63
2023-05-25T20:18:24.117Z,97263.19
2023-05-25T20:20:53.414Z,97265.89
2023-05-25T20:23:21.590Z,97266.21
2023-05-25T20:25:50.330Z,97266.08
2023-05-25T20:28:19.685Z,97263.49
2023-05-25T20:30:49.014Z,97262.82
2023-05-25T20:33:17.332Z,97265.30
2023-05-25T20:35:45.814Z,97263.89
2023-05-25T20:38:13.944Z,97265.45
2023-05-25T20:40:41.921Z,97264.65
2023-05-25T20:43:09.893Z,97260.60
2023-05-25T20:45:39.488Z,97252.69
2023-05-25T20:48:08.089Z,97251.73
2023-05-25T20:50:36.463Z,97252.29
2023-05-25T20:53:05.026Z,97255.33
2023-05-25T20:55:33.923Z,97260.70
2023-05-25T20:58:02.000Z,97262.00
2023-05-25T21:00:31.290Z,97265.34
2023-05-25T21:03:01.482Z,97265.23
2023-05-25T21:05:29.876Z,97267.04
2023-05-25T21:07:58.015Z,97267.69
2023-05-25T21:10:28.906Z,97267.77
2023-05-25T21:12:57.495Z,97263.20
2023-05-25T21:15:27.320Z,97263.00
2023-05-25T21:17:57.902Z,97266.56
2023-05-25T21:20:28.242Z,97272.77
2023-05-25T21:22:56.964Z,97280.20
2023-05-25T21:25:25.420Z,97290.67
2023-05-25T21:27:56.718Z,97292.52
2023-05-25T21:30:25.823Z,97296.17
2023-05-25T21:32:53.976Z,97299.61
2023-05-25T21:35:23.845Z,97302.66
2023-05-25T21:37:51.863Z,97303.33
2023-05-25T21:40:22.045Z,97309.64
2023-05-25T21:42:53.780Z,97313.75
2023-05-25T21:45:21.818Z,97312.89
2023-05-25T21:47:49.808Z,97315.64
2023-05-25T21:50:17.947Z,97313.49
2023-05-25T21:52:46.375Z,97309.39
2023-05-25T21:55:14.583Z,97334.06
2023-05-25T21:57:43.200Z,97355.09
2023-05-25T22:00:12.916Z,97351.35
2023-05-25T22:02:42.725Z,97348.19
2023-05-25T22:05:10.747Z,97343.78
2023-05-25T22:07:39.076Z,97338.38
2023-05-25T22:10:07.778Z,97333.65
2023-05-25T22:12:36.384Z,97334.10
2023-05-25T22:15:06.056Z,97331.35
2023-05-25T22:17:34.836Z,97326.05
2023-05-25T22:20:08.066Z,97329.55
2023-05-25T22:22:37.575Z,97336.13
2023-05-25T22:25:06.260Z,97332.97
2023-05-25T22:27:35.424Z,97328.27
2023-05-25T22:30:03.804Z,97331.02
2023-05-25T22:32:31.895Z,97333.94
2023-05-25T22:34:59.887Z,97334.06
2023-05-25T22:37:29.155Z,97334.71
2023-05-25T22:39:58.525Z,97339.81
2023-05-25T22:42:26.396Z,97340.31
2023-05-25T22:44:55.842Z,97332.50
2023-05-25T22:47:24.699Z,97333.65
2023-05-25T22:49:53.406Z,97333.73
2023-05-25T22:52:21.950Z,97330.79
2023-05-25T22:54:49.978Z,97332.89
2023-05-25T22:57:19.724Z,97328.86
2023-05-25T22:59:48.523Z,97322.91
2023-05-25T23:02:17.184Z,97324.61
2023-05-25T23:04:45.854Z,97327.25
2023-05-25T23:07:14.905Z,97324.63
2023-05-25T23:09:43.178Z,97326.23
2023-05-25T23:12:11.323Z,97324.52
2023-05-25T23:14:39.320Z,97318.21
2023-05-25T23:17:08.115Z,97314.65
2023-05-25T23:19:44.934Z,97311.14
2023-05-25T23:22:13.076Z,97307.84
2023-05-25T23:24:41.622Z,97304.20
2023-05-25T23:27:09.726Z,97297.60
2023-05-25T23:29:41.522Z,97290.19
2023-05-25T23:32:09.519Z,97288.63
2023-05-25T23:34:38.453Z,97284.86
2023-05-25T23:37:07.445Z,97276.52
2023-05-25T23:39:35.499Z,97274.09
2023-05-25T23:42:03.617Z,97273.21
2023-05-25T23:44:32.077Z,97270.42
2023-05-25T23:47:02.471Z,97270.31
2023-05-25T23:49:31.324Z,97266.65
2023-05-25T23:52:00.088Z,97268.73
2023-05-25T23:54:29.239Z,97267.67
2023-05-25T23:56:57.507Z,97258.20
2023-05-25T23:59:26.192Z,97255.66
